Time;durP1;ratioP1;P1;durP2;ratioP2;P2;SDS_P1;SDS_P2;PMS_P1;PMS_P2;Temp;Humidity;BMP_temperature;BMP_pressure;BME280_temperature;BME280_humidity;BME280_pressure;Samples;Min_cycle;Max_cycle;Signal;HPM_P1;HPM_P2
2022/10/16 00:01:11;;;;;;;10.55;1.45;;;;;;;21.39;89.65;96688.75;6265721;22;20011;-87
2022/10/16 00:03:37;;;;;;;9.05;1.55;;;;;;;21.52;89.88;96677.91;6238209;22;20011;-87
2022/10/16 00:06:03;;;;;;;7.43;2.05;;;;;;;21.94;88.56;96664.56;6266812;22;20091;-87
2022/10/16 00:08:30;;;;;;;7.32;1.30;;;;;;;21.23;90.06;96674.19;6266360;22;20004;-88
2022/10/16 00:10:59;;;;;;;7.85;1.10;;;;;;;20.83;91.75;96671.44;6264699;22;20455;-87
2022/10/16 00:13:25;;;;;;;7.43;1.00;;;;;;;21.82;89.25;96653.19;6238753;22;20078;-88
2022/10/16 00:15:50;;;;;;;7.95;1.30;;;;;;;21.49;90.97;96671.09;6238729;22;20031;-88
2022/10/16 00:18:16;;;;;;;10.57;1.38;;;;;;;21.31;93.02;96666.41;6238385;22;20008;-87
2022/10/16 00:20:41;;;;;;;11.07;1.13;;;;;;;21.35;92.54;96671.44;6269555;22;19999;-87
2022/10/16 00:23:08;;;;;;;9.50;1.90;;;;;;;21.26;92.30;96659.81;6239924;22;20019;-87
2022/10/16 00:25:33;;;;;;;7.30;1.30;;;;;;;21.21;92.85;96632.88;6264035;22;20094;-88
2022/10/16 00:28:00;;;;;;;11.45;1.40;;;;;;;21.46;90.46;96669.53;6267671;22;20015;-87
2022/10/16 00:30:27;;;;;;;11.65;1.60;;;;;;;23.48;86.57;96666.41;6266434;22;19996;-88
2022/10/16 00:32:53;;;;;;;7.10;1.33;;;;;;;21.69;90.00;96687.94;6239610;22;20367;-87
2022/10/16 00:35:18;;;;;;;12.70;1.40;;;;;;;23.17;87.20;96682.63;6268171;22;20374;-87
2022/10/16 00:37:43;;;;;;;10.02;1.58;;;;;;;22.07;89.17;96680.22;6241014;22;20023;-87
2022/10/16 00:40:09;;;;;;;10.63;1.45;;;;;;;21.81;89.71;96670.13;6266753;22;20008;-87
2022/10/16 00:42:35;;;;;;;8.18;1.70;;;;;;;21.17;90.71;96681.81;6267319;22;20010;-87
2022/10/16 00:45:01;;;;;;;10.35;1.63;;;;;;;21.57;90.38;96681.06;6240528;22;20027;-86
2022/10/16 00:47:40;;;;;;;9.98;1.13;;;;;;;21.16;91.82;96673.03;6239922;22;20034;-87
2022/10/16 00:50:12;;;;;;;12.57;1.67;;;;;;;21.38;92.42;96685.28;6239461;22;20008;-87
2022/10/16 00:52:41;;;;;;;8.38;1.38;;;;;;;20.96;91.89;96695.94;6239985;22;20007;-87
2022/10/16 00:55:09;;;;;;;8.98;1.73;;;;;;;20.08;95.97;96682.78;6237377;22;20028;-87
2022/10/16 00:57:34;;;;;;;13.35;1.52;;;;;;;20.49;96.15;96685.66;6239980;22;20091;-87
2022/10/16 01:00:00;;;;;;;15.85;1.95;;;;;;;20.11;96.30;96684.31;6253887;22;20079;-87
2022/10/16 01:02:25;;;;;;;12.02;1.60;;;;;;;20.53;95.59;96702.13;6266730;22;20434;-86
2022/10/16 01:04:54;;;;;;;12.30;1.55;;;;;;;19.67;98.18;96700.13;6241391;22;20004;-86
2022/10/16 01:07:26;;;;;;;8.50;1.50;;;;;;;20.54;96.93;96709.97;6268382;22;20051;-86
2022/10/16 01:10:16;;;;;;;10.18;1.48;;;;;;;19.92;97.38;96711.44;6266226;22;20027;-87
2022/10/16 01:12:47;;;;;;;15.80;1.65;;;;;;;19.92;97.88;96711.44;6239533;22;20035;-86
2022/10/16 01:15:29;;;;;;;9.57;1.60;;;;;;;20.64;96.48;96718.81;6269250;22;20145;-87
2022/10/16 01:18:11;;;;;;;10.60;2.22;;;;;;;19.65;99.00;96731.13;6238908;22;20181;-87
2022/10/16 01:21:09;;;;;;;7.05;1.33;;;;;;;20.98;93.18;96716.00;6269039;22;20030;-87
2022/10/16 01:23:53;;;;;;;11.85;2.30;;;;;;;20.44;94.77;96730.19;6235071;22;20484;-87
2022/10/16 01:26:21;;;;;;;;;;;;;;;20.31;94.25;96724.25;6241288;22;20114;-87
2022/10/16 01:28:57;;;;;;;12.63;1.48;;;;;;;19.17;98.59;96728.72;6240021;22;19916;-87
2022/10/16 01:31:29;;;;;;;11.43;1.50;;;;;;;20.50;93.04;96731.50;6268143;22;20042;-87
2022/10/16 01:34:10;;;;;;;8.45;1.95;;;;;;;19.66;95.36;96745.22;6240395;22;20065;-87
2022/10/16 01:36:41;;;;;;;9.10;1.52;;;;;;;20.41;93.28;96736.59;6239653;22;20007;-87
2022/10/16 01:39:10;;;;;;;8.00;1.30;;;;;;;19.77;94.46;96743.38;6240016;22;19995;-86
2022/10/16 01:41:44;;;;;;;8.07;1.30;;;;;;;20.09;93.57;96744.50;6268586;22;20012;-87
2022/10/16 01:44:23;;;;;;;10.77;1.35;;;;;;;20.04;93.43;96744.00;6241691;22;20092;-86
2022/10/16 01:46:52;;;;;;;8.25;1.40;;;;;;;20.53;92.98;96744.47;6240242;22;20034;-87
2022/10/16 01:49:20;;;;;;;7.90;1.35;;;;;;;21.19;90.28;96748.81;6239251;22;20015;-87
2022/10/16 01:51:49;;;;;;;6.35;0.75;;;;;;;20.45;92.28;96763.66;6242280;22;20422;-87
2022/10/16 01:54:19;;;;;;;7.35;1.02;;;;;;;20.67;92.17;96768.03;6266782;22;20652;-87
2022/10/16 01:56:45;;;;;;;6.60;1.02;;;;;;;20.52;90.74;96770.13;6241734;22;20016;-87
2022/10/16 01:59:16;;;;;;;9.10;1.65;;;;;;;20.83;91.99;96774.75;6238159;22;20006;-87
2022/10/16 02:01:46;;;;;;;7.22;0.95;;;;;;;20.50;92.51;96781.81;6251978;22;20046;-95
2022/10/16 02:04:18;;;;;;;7.10;1.10;;;;;;;20.03;92.39;96774.94;6215600;23;20026;-95
2022/10/16 02:06:44;;;;;;;8.82;1.20;;;;;;;21.20;89.29;96772.53;6218460;23;20054;-94
2022/10/16 02:09:10;;;;;;;5.88;0.82;;;;;;;21.33;88.57;96771.50;6219947;23;19997;-96
2022/10/16 02:11:36;;;;;;;10.18;1.13;;;;;;;20.98;90.18;96781.44;6219441;23;20035;-95
2022/10/16 02:14:08;;;;;;;11.32;1.23;;;;;;;21.52;86.56;96779.59;6219325;23;20004;-95
2022/10/16 02:16:39;;;;;;;10.40;1.53;;;;;;;21.66;85.15;96799.63;6219058;23;20012;-95
2022/10/16 02:19:06;;;;;;;6.03;2.00;;;;;;;21.46;86.81;96783.59;6218860;23;20012;-95
2022/10/16 02:21:48;;;;;;;10.82;1.63;;;;;;;21.46;86.94;96807.44;6219411;23;20003;-94
2022/10/16 02:24:32;;;;;;;7.15;0.95;;;;;;;21.05;87.66;96811.75;6220844;23;20019;-96
2022/10/16 02:27:05;;;;;;;;;;;;;;;22.02;86.92;96815.16;6219324;23;20018;-96
2022/10/16 02:29:34;;;;;;;7.20;1.20;;;;;;;22.33;86.05;96808.84;6219469;23;19907;-96
2022/10/16 02:32:04;;;;;;;6.22;0.95;;;;;;;21.54;86.46;96813.94;6219808;23;20105;-95
2022/10/16 02:34:32;;;;;;;10.73;1.10;;;;;;;20.45;89.67;96828.03;6219205;23;20011;-95
2022/10/16 02:37:01;;;;;;;8.75;1.00;;;;;;;20.42;89.57;96833.59;6219908;23;20442;-95
2022/10/16 02:39:28;;;;;;;6.30;1.13;;;;;;;20.73;91.42;96840.91;6219389;23;20032;-95
2022/10/16 02:41:54;;;;;;;7.70;1.15;;;;;;;20.18;91.81;96840.81;6219484;23;20015;-96
2022/10/16 02:44:20;;;;;;;10.68;1.52;;;;;;;21.34;88.57;96845.59;6219315;23;20000;-96
2022/10/16 02:46:45;;;;;;;8.90;1.13;;;;;;;21.41;88.41;96852.06;6219099;23;20011;-95
2022/10/16 02:49:11;;;;;;;8.63;1.08;;;;;;;21.56;89.02;96844.66;6219311;23;20004;-96
2022/10/16 02:51:36;;;;;;;8.13;1.08;;;;;;;20.78;91.26;96847.50;6219147;23;20016;-96
2022/10/16 02:54:02;;;;;;;6.90;1.40;;;;;;;21.73;87.76;96858.31;6219301;23;20338;-95
2022/10/16 02:56:28;;;;;;;8.75;1.15;;;;;;;21.07;88.64;96860.19;6218153;23;20439;-96
2022/10/16 02:58:53;;;;;;;9.45;1.05;;;;;;;21.56;87.47;96865.03;6219642;23;19999;-94
2022/10/16 03:01:18;;;;;;;7.43;1.30;;;;;;;20.84;88.72;96866.53;6221246;23;20020;-95
2022/10/16 03:03:44;;;;;;;9.88;1.25;;;;;;;20.47;91.28;96867.63;6219274;23;20012;-96
2022/10/16 03:06:09;;;;;;;6.80;0.98;;;;;;;20.33;89.72;96875.84;6219475;23;20043;-94
2022/10/16 03:08:34;;;;;;;9.98;1.30;;;;;;;20.76;90.75;96886.50;6219895;23;20090;-96
2022/10/16 03:11:00;;;;;;;8.18;0.90;;;;;;;20.62;90.94;96902.66;6223102;23;20008;-95
2022/10/16 03:13:25;;;;;;;8.75;1.00;;;;;;;20.75;91.88;96906.03;6219285;23;20513;-95
2022/10/16 03:15:51;;;;;;;8.98;1.05;;;;;;;21.43;88.70;96913.78;6219140;23;20099;-95
2022/10/16 03:18:16;;;;;;;6.25;0.90;;;;;;;21.90;86.66;96905.47;6219413;23;20003;-96
2022/10/16 03:20:43;;;;;;;5.57;1.10;;;;;;;21.20;88.44;96918.31;6219112;23;20056;-95
2022/10/16 03:23:09;;;;;;;7.78;1.73;;;;;;;21.39;87.81;96917.66;6218898;23;20031;-96
2022/10/16 03:25:34;;;;;;;8.70;0.98;;;;;;;21.71;87.38;96921.25;6219583;23;20027;-96
2022/10/16 03:28:00;;;;;;;11.60;1.20;;;;;;;20.71;89.36;96922.28;6219867;23;20012;-96
2022/10/16 03:30:25;;;;;;;5.90;1.10;;;;;;;20.48;89.26;96924.09;6219364;23;20256;-95
2022/10/16 03:33:18;;;;;;;7.00;0.98;;;;;;;21.59;89.69;96939.91;6219556;23;20367;-95
2022/10/16 03:36:03;;;;;;;6.13;1.10;;;;;;;21.60;87.12;96935.41;6123678;23;20444;-95
2022/10/16 03:38:28;;;;;;;6.18;1.20;;;;;;;21.34;88.83;96953.47;6122403;23;20034;-95
2022/10/16 03:40:54;;;;;;;5.88;1.00;;;;;;;21.23;88.04;96959.66;6122564;23;20818;-95
2022/10/16 03:43:19;;;;;;;5.80;0.77;;;;;;;21.85;87.49;96975.84;6121254;23;20014;-95
2022/10/16 03:45:44;;;;;;;6.47;1.13;;;;;;;20.66;90.04;96961.53;6122800;23;20018;-95
2022/10/16 03:48:10;;;;;;;8.02;1.15;;;;;;;20.93;88.98;96967.31;6123129;23;20006;-95
2022/10/16 03:50:43;;;;;;;7.03;1.00;;;;;;;22.08;84.56;96984.53;6122486;23;20464;-95
2022/10/16 03:53:09;;;;;;;8.00;1.08;;;;;;;20.84;88.90;96991.88;6097994;23;20006;-96
2022/10/16 03:55:35;;;;;;;5.90;0.85;;;;;;;20.26;90.39;96994.59;6122567;23;20010;-95
2022/10/16 03:58:00;;;;;;;7.03;1.00;;;;;;;21.48;88.04;97007.06;6097726;23;20032;-96
2022/10/16 04:00:26;;;;;;;6.95;1.02;;;;;;;20.79;88.42;97010.81;6098310;23;20037;-95
2022/10/16 04:02:51;;;;;;;6.63;1.20;;;;;;;20.91;87.61;97016.09;6121512;23;20045;-96
2022/10/16 04:05:17;;;;;;;6.80;1.52;;;;;;;21.06;87.89;97033.41;6122787;23;20039;-96
2022/10/16 04:07:42;;;;;;;8.10;1.33;;;;;;;20.87;87.75;97031.38;6122340;23;20002;-96
2022/10/16 04:10:08;;;;;;;6.47;1.05;;;;;;;21.19;87.03;97038.56;6123397;23;20033;-96
2022/10/16 04:12:33;;;;;;;8.27;1.20;;;;;;;20.78;86.41;97045.38;6183790;23;20099;-96
2022/10/16 04:14:58;;;;;;;8.40;1.20;;;;;;;21.85;85.07;97055.44;6218753;23;20371;-96
2022/10/16 04:17:24;;;;;;;6.95;1.23;;;;;;;20.52;86.20;97050.00;6245451;23;20004;-96
2022/10/16 04:19:49;;;;;;;6.50;1.17;;;;;;;19.36;88.58;97046.16;6217959;23;20014;-96
2022/10/16 04:22:15;;;;;;;9.73;1.23;;;;;;;19.26;92.74;97067.13;6219862;23;20027;-96
2022/10/16 04:24:40;;;;;;;5.95;1.10;;;;;;;19.99;91.26;97067.19;6218403;23;20083;-96
2022/10/16 04:27:06;;;;;;;7.57;1.25;;;;;;;20.39;89.66;97081.84;6219294;23;20034;-95
2022/10/16 04:29:31;;;;;;;6.95;1.00;;;;;;;19.38;93.19;97094.47;6217918;23;20024;-96
2022/10/16 04:31:56;;;;;;;8.65;1.20;;;;;;;19.89;91.89;97096.13;6219220;23;20390;-96
2022/10/16 04:34:22;;;;;;;5.97;0.90;;;;;;;19.45;91.98;97092.22;6217236;23;20058;-96
2022/10/16 04:36:49;;;;;;;4.75;0.85;;;;;;;19.33;93.78;97112.47;6219496;23;20050;-96
2022/10/16 04:39:14;;;;;;;8.90;0.90;;;;;;;20.28;90.21;97123.22;6219925;23;20022;-96
2022/10/16 04:41:40;;;;;;;9.68;1.10;;;;;;;20.96;88.73;97138.47;6220655;23;20004;-96
2022/10/16 04:44:05;;;;;;;7.70;1.17;;;;;;;20.61;87.52;97132.25;6220997;23;20012;-94
2022/10/16 04:46:31;;;;;;;5.70;0.80;;;;;;;19.56;91.93;97136.41;6219734;23;20059;-94
2022/10/16 04:48:56;;;;;;;6.35;0.90;;;;;;;20.69;88.77;97139.63;6219942;23;20092;-96
2022/10/16 04:51:21;;;;;;;5.13;0.75;;;;;;;21.21;86.51;97142.72;6220922;23;20016;-95
2022/10/16 04:53:50;;;;;;;6.03;1.10;;;;;;;20.92;85.01;97158.22;6220570;23;20007;-95
2022/10/16 04:56:15;;;;;;;8.00;1.17;;;;;;;19.62;91.39;97157.13;6220107;23;20011;-95
2022/10/16 04:58:41;;;;;;;6.85;1.13;;;;;;;20.33;89.61;97161.75;6220783;23;20004;-95
2022/10/16 05:01:06;;;;;;;5.82;0.90;;;;;;;19.24;90.58;97152.75;6218909;23;20434;-95
2022/10/16 05:03:32;;;;;;;7.38;1.40;;;;;;;18.74;92.74;97156.09;6219346;23;20090;-94
2022/10/16 05:06:06;;;;;;;5.70;0.70;;;;;;;19.30;91.85;97162.06;6246014;23;20381;-96
2022/10/16 05:08:32;;;;;;;6.78;1.05;;;;;;;19.48;91.27;97171.31;6219942;23;20012;-96
2022/10/16 05:10:58;;;;;;;5.18;1.00;;;;;;;19.60;90.71;97177.56;6219026;23;20360;-94
2022/10/16 05:13:23;;;;;;;8.05;1.15;;;;;;;18.86;91.59;97180.84;6219167;23;20011;-95
2022/10/16 05:15:49;;;;;;;6.85;1.15;;;;;;;20.04;89.53;97180.63;6220532;23;20004;-92
2022/10/16 05:18:15;;;;;;;5.50;0.70;;;;;;;19.90;88.12;97185.13;6247584;23;20000;-96
2022/10/16 05:20:41;;;;;;;8.82;1.00;;;;;;;18.87;91.93;97202.81;6219709;23;20012;-96
2022/10/16 05:23:07;;;;;;;5.75;0.90;;;;;;;19.30;90.52;97207.81;6220618;23;20014;-95
2022/10/16 05:25:32;;;;;;;5.60;1.00;;;;;;;19.22;90.08;97211.00;6219051;23;20028;-94
2022/10/16 05:27:57;;;;;;;7.28;1.00;;;;;;;19.36;89.89;97220.63;6223672;23;19996;-96
2022/10/16 05:30:23;;;;;;;6.32;1.10;;;;;;;18.38;92.39;97226.25;6219563;23;20008;-95
2022/10/16 05:32:49;;;;;;;8.75;0.90;;;;;;;18.73;91.40;97223.09;6219726;23;20015;-96
2022/10/16 05:35:15;;;;;;;15.50;1.13;;;;;;;18.12;93.10;97233.25;6219627;23;20433;-96
2022/10/16 05:37:41;;;;;;;4.40;0.80;;;;;;;19.16;90.85;97232.56;6219741;23;20087;-96
2022/10/16 05:40:07;;;;;;;8.45;0.90;;;;;;;18.24;91.02;97239.50;6220289;23;20038;-96
2022/10/16 05:42:32;;;;;;;5.03;1.05;;;;;;;18.84;91.38;97250.56;6219255;23;20008;-96
2022/10/16 05:44:58;;;;;;;4.93;1.15;;;;;;;17.87;94.02;97255.00;6218112;23;20135;-96
2022/10/16 05:47:23;;;;;;;5.30;0.70;;;;;;;19.07;90.22;97254.34;6219354;23;20092;-95
2022/10/16 05:49:49;;;;;;;7.85;0.90;;;;;;;17.90;91.80;97254.84;6219620;23;20000;-96
2022/10/16 05:52:14;;;;;;;4.85;0.90;;;;;;;18.21;92.16;97259.03;6218951;23;20272;-96
2022/10/16 05:54:39;;;;;;;4.57;0.82;;;;;;;17.98;91.86;97264.91;6218843;23;20505;-96
2022/10/16 05:57:05;;;;;;;5.85;1.25;;;;;;;17.83;90.66;97266.69;6218358;23;20008;-96
2022/10/16 05:59:31;;;;;;;6.22;0.90;;;;;;;17.71;91.67;97278.84;6218565;23;20461;-95
2022/10/16 06:02:00;;;;;;;3.67;0.70;;;;;;;17.96;92.47;97275.56;6219105;23;20020;-96
2022/10/16 06:04:25;;;;;;;6.72;0.85;;;;;;;17.91;91.26;97285.53;6219495;23;20031;-95
2022/10/16 06:06:51;;;;;;;4.10;1.08;;;;;;;18.25;89.77;97294.00;6219327;23;20016;-95
2022/10/16 06:09:16;;;;;;;6.82;0.60;;;;;;;18.13;90.98;97298.25;6219737;23;20692;-95
2022/10/16 06:11:42;;;;;;;6.63;0.93;;;;;;;18.54;89.20;97300.03;6218195;23;20454;-94
2022/10/16 06:14:08;;;;;;;3.80;0.70;;;;;;;17.20;93.48;97301.22;6219731;23;20000;-95
2022/10/16 06:16:35;;;;;;;7.82;0.85;;;;;;;16.82;94.98;97300.81;6218963;23;20004;-96
2022/10/16 06:19:04;;;;;;;3.42;0.55;;;;;;;16.20;98.89;97278.81;6218125;23;20426;-96
2022/10/16 06:21:29;;;;;;;4.82;0.82;;;;;;;16.35;99.61;97287.63;6219654;23;20493;-96
2022/10/16 06:23:56;;;;;;;3.58;0.65;;;;;;;16.24;97.84;97287.38;6221923;23;20011;-96
2022/10/16 06:26:25;;;;;;;5.32;0.70;;;;;;;16.57;98.82;97301.38;6218882;23;20004;-96
2022/10/16 06:28:54;;;;;;;6.25;0.70;;;;;;;16.37;96.49;97300.69;6219533;23;20000;-95
2022/10/16 06:31:19;;;;;;;3.60;0.77;;;;;;;16.61;98.48;97310.78;6218707;23;20579;-96
2022/10/16 06:33:48;;;;;;;6.43;0.90;;;;;;;17.14;98.49;97309.47;6219606;23;20007;-96
2022/10/16 06:36:17;;;;;;;13.45;2.88;;;;;;;17.40;96.45;97315.00;6219385;23;20079;-96
2022/10/16 06:38:43;;;;;;;2.55;0.52;;;;;;;16.03;99.09;97319.19;6218040;23;20450;-95
2022/10/16 06:41:17;;;;;;;5.72;0.90;;;;;;;16.45;100.00;97332.69;6219531;23;20099;-95
2022/10/16 06:43:44;;;;;;;4.90;0.90;;;;;;;16.92;96.46;97330.94;6219755;23;20015;-96
2022/10/16 06:46:11;;;;;;;5.20;0.82;;;;;;;17.19;95.11;97349.56;6219133;23;20071;-96
2022/10/16 06:48:37;;;;;;;9.13;1.48;;;;;;;16.92;95.45;97346.75;6219570;23;20007;-94
2022/10/16 06:51:15;;;;;;;7.38;0.80;;;;;;;17.51;94.66;97356.53;6219969;23;20012;-96
2022/10/16 06:53:43;;;;;;;7.13;0.93;;;;;;;18.34;92.65;97355.88;6221373;23;20050;-96
2022/10/16 06:56:15;;;;;;;12.88;1.70;;;;;;;17.97;91.38;97374.00;6220104;23;20027;-96
2022/10/16 06:58:46;;;;;;;6.30;1.02;;;;;;;17.66;91.86;97352.97;6221482;23;20011;-96
2022/10/16 07:01:14;;;;;;;4.90;0.90;;;;;;;17.55;91.34;97361.53;6220568;23;20015;-96
2022/10/16 07:03:55;;;;;;;8.50;0.90;;;;;;;17.79;93.30;97371.53;6222538;23;20012;-96
2022/10/16 07:06:23;;;;;;;4.88;0.95;;;;;;;17.68;93.03;97377.44;6246666;23;20010;-95
2022/10/16 07:08:56;;;;;;;7.10;0.82;;;;;;;16.68;96.51;97384.03;6221285;23;20004;-96
2022/10/16 07:11:23;;;;;;;4.07;0.73;;;;;;;16.56;96.01;97376.81;6222708;23;20093;-96
2022/10/16 07:13:49;;;;;;;4.95;1.00;;;;;;;16.79;96.27;97395.75;6221878;23;20012;-96
2022/10/16 07:16:22;;;;;;;3.25;0.80;;;;;;;17.44;96.45;97392.06;6221028;23;20083;-96
2022/10/16 07:18:48;;;;;;;6.60;0.88;;;;;;;17.30;95.60;97409.56;6220019;23;20092;-95
2022/10/16 07:21:20;;;;;;;8.35;1.05;;;;;;;17.70;94.74;97408.97;6219435;23;20008;-96
2022/10/16 07:23:49;;;;;;;7.25;1.13;;;;;;;18.02;93.15;97412.38;6217572;23;20018;-96
2022/10/16 07:26:24;;;;;;;8.95;1.33;;;;;;;18.03;92.61;97413.19;6220836;23;20047;-96
2022/10/16 07:28:52;;;;;;;6.30;0.90;;;;;;;17.92;93.68;97405.94;6218903;23;20083;-95
2022/10/16 07:31:19;;;;;;;4.97;1.00;;;;;;;18.41;92.41;97421.41;6219345;23;20016;-96
2022/10/16 07:33:47;;;;;;;8.07;1.42;;;;;;;17.92;94.02;97411.22;6221540;23;20038;-96
2022/10/16 07:36:24;;;;;;;5.20;1.00;;;;;;;18.37;92.47;97419.91;6219712;23;20369;-95
2022/10/16 07:38:57;;;;;;;6.18;0.88;;;;;;;17.65;95.41;97417.19;6220404;23;20011;-96
2022/10/16 07:41:23;;;;;;;;;;;;;;;18.66;91.38;97438.31;6220815;23;20012;-96
2022/10/16 07:43:50;;;;;;;13.88;2.10;;;;;;;17.26;94.29;97429.13;6218759;23;20366;-94
2022/10/16 07:46:16;;;;;;;9.18;1.00;;;;;;;17.56;95.41;97437.03;6219991;23;20008;-96
2022/10/16 07:48:47;;;;;;;7.65;1.20;;;;;;;17.21;95.48;97439.06;6217542;23;20078;-96
2022/10/16 07:51:15;;;;;;;7.72;0.88;;;;;;;17.59;95.61;97449.16;6218280;23;20127;-96
2022/10/16 07:53:51;;;;;;;7.80;1.13;;;;;;;17.62;97.64;97445.50;6246806;23;20326;-95
2022/10/16 07:56:18;;;;;;;7.38;0.95;;;;;;;17.55;94.99;97455.53;6217773;23;19996;-96
2022/10/16 07:58:44;;;;;;;8.15;1.40;;;;;;;17.34;97.60;97445.34;6217501;23;20015;-94
2022/10/16 08:01:15;;;;;;;5.57;1.00;;;;;;;17.12;98.62;97468.56;6218275;23;20056;-96
2022/10/16 08:03:47;;;;;;;10.43;1.00;;;;;;;17.60;95.94;97466.69;6221956;23;20027;-95
2022/10/16 08:06:13;;;;;;;7.28;1.30;;;;;;;17.30;97.11;97469.28;6220712;23;20213;-95
2022/10/16 08:08:39;;;;;;;6.63;1.00;;;;;;;17.35;98.55;97483.91;6218772;23;20023;-96
2022/10/16 08:11:04;;;;;;;5.90;0.90;;;;;;;18.13;96.67;97484.72;6244735;23;20287;-93
2022/10/16 08:13:31;;;;;;;9.00;1.17;;;;;;;17.21;97.32;97484.69;6219582;23;20016;-96
2022/10/16 08:15:58;;;;;;;6.28;1.02;;;;;;;17.95;97.49;97479.59;6218646;23;20012;-95
2022/10/16 08:18:23;;;;;;;7.00;1.20;;;;;;;17.50;99.04;97474.28;6219451;23;20039;-96
2022/10/16 08:20:55;;;;;;;6.00;1.10;;;;;;;17.51;98.87;97483.06;6216956;23;20008;-93
2022/10/16 08:23:21;;;;;;;5.43;0.93;;;;;;;16.97;100.00;97509.78;6217931;23;20435;-96
2022/10/16 08:25:46;;;;;;;7.60;1.30;;;;;;;17.76;97.09;97506.19;6218655;23;20008;-96
2022/10/16 08:28:12;;;;;;;6.75;0.98;;;;;;;18.12;97.20;97491.81;6218747;23;20819;-96
2022/10/16 08:30:37;;;;;;;5.05;0.90;;;;;;;18.73;95.59;97492.47;6220480;23;20004;-95
2022/10/16 08:33:06;;;;;;;7.38;1.42;;;;;;;18.52;94.99;97493.78;6219312;23;20012;-96
2022/10/16 08:35:31;;;;;;;4.53;0.85;;;;;;;18.26;96.69;97493.59;6218797;23;20023;-96
2022/10/16 08:38:06;;;;;;;7.13;1.13;;;;;;;17.65;97.72;97498.06;6220708;23;20435;-96
2022/10/16 08:40:34;;;;;;;9.85;1.08;;;;;;;18.91;92.79;97502.84;6219484;23;20027;-96
2022/10/16 08:43:17;;;;;;;4.43;0.77;;;;;;;18.67;94.19;97513.97;6245535;23;20004;-95
2022/10/16 08:45:52;;;;;;;5.32;0.82;;;;;;;18.86;94.04;97518.97;6219736;23;20019;-96
2022/10/16 08:48:56;;;;;;;8.15;1.05;;;;;;;17.60;97.18;97527.31;6244915;23;20004;-96
2022/10/16 08:51:33;;;;;;;6.70;1.00;;;;;;;17.85;95.72;97536.44;6214107;23;20024;-96
2022/10/16 08:54:05;;;;;;;6.93;1.02;;;;;;;18.15;96.25;97532.97;6219314;23;20015;-95
2022/10/16 08:56:30;;;;;;;6.00;1.10;;;;;;;18.21;96.09;97522.06;6217533;23;20012;-96
2022/10/16 08:58:58;;;;;;;4.38;0.85;;;;;;;17.99;95.30;97548.88;6217603;23;20039;-96
2022/10/16 09:01:29;;;;;;;5.47;0.85;;;;;;;19.08;91.14;97552.84;6218156;23;20024;-96
2022/10/16 09:04:18;;;;;;;4.93;0.90;;;;;;;19.44;91.40;97564.66;6218019;23;20469;-96
2022/10/16 09:06:55;;;;;;;7.43;1.08;;;;;;;18.25;92.94;97566.63;6218913;23;20004;-96
2022/10/16 09:09:49;;;;;;;6.05;0.95;;;;;;;18.88;90.91;97572.56;6218079;23;20016;-95
2022/10/16 09:12:33;;;;;;;9.35;1.20;;;;;;;19.17;90.92;97584.91;6217853;23;20023;-96
2022/10/16 09:15:13;;;;;;;9.15;1.08;;;;;;;19.26;92.07;97585.19;6218894;23;20000;-95
2022/10/16 09:18:21;;;;;;;4.88;1.08;;;;;;;19.14;91.10;97585.09;6218916;23;20050;-96
2022/10/16 09:21:07;;;;;;;4.32;0.80;;;;;;;19.21;88.73;97583.78;6096875;23;20072;-96
2022/10/16 09:23:36;;;;;;;7.22;1.00;;;;;;;19.03;89.21;97591.91;6100301;23;20022;-96
2022/10/16 09:26:03;;;;;;;9.57;1.38;;;;;;;19.76;87.22;97588.16;6103875;23;20005;-96
2022/10/16 09:28:29;;;;;;;8.07;0.90;;;;;;;20.06;86.98;97589.75;6128651;23;20045;-96
2022/10/16 09:30:54;;;;;;;6.00;1.08;;;;;;;20.80;86.25;97599.81;6105117;23;20022;-96
2022/10/16 09:33:38;;;;;;;6.78;1.08;;;;;;;22.35;79.87;97610.00;6103825;23;20013;-96
2022/10/16 09:36:06;;;;;;;3.85;0.88;;;;;;;23.83;72.58;97620.56;6105291;23;20013;-96
2022/10/16 09:38:35;;;;;;;4.50;0.80;;;;;;;21.94;76.58;97622.72;6126802;23;20014;-95
2022/10/16 09:41:11;;;;;;;8.73;0.98;;;;;;;20.76;81.35;97623.03;6115734;23;20033;-96
2022/10/16 09:43:46;;;;;;;5.38;0.90;;;;;;;21.62;79.45;97617.97;6126131;23;20025;-96
2022/10/16 09:46:26;;;;;;;5.50;0.95;;;;;;;22.81;76.21;97625.91;6104832;23;20006;-96
2022/10/16 09:48:55;;;;;;;6.13;0.90;;;;;;;22.78;75.22;97627.97;6126879;23;20010;-96
2022/10/16 09:51:43;;;;;;;5.03;0.80;;;;;;;22.95;74.88;97618.66;6182111;23;20015;-95
2022/10/16 09:54:09;;;;;;;7.20;1.05;;;;;;;23.25;72.26;97631.41;6221571;23;20008;-96
2022/10/16 09:56:36;;;;;;;5.68;0.70;;;;;;;26.72;60.05;97635.59;6223927;23;20008;-96
2022/10/16 09:59:13;;;;;;;6.05;1.10;;;;;;;27.94;57.28;97644.53;6223983;23;20008;-96
2022/10/16 10:01:51;;;;;;;6.95;0.98;;;;;;;25.52;60.96;97651.75;6229048;23;20060;-96
2022/10/16 10:04:19;;;;;;;9.98;0.93;;;;;;;25.11;65.81;97657.03;6227822;23;20438;-96
2022/10/16 10:06:56;;;;;;;4.43;0.70;;;;;;;23.24;66.39;97666.94;6227807;23;20059;-96
2022/10/16 10:09:21;;;;;;;7.82;1.25;;;;;;;23.10;72.62;97673.31;6226434;23;20019;-96
2022/10/16 10:11:51;;;;;;;6.15;0.82;;;;;;;22.22;70.07;97685.22;6256636;23;20023;-96
2022/10/16 10:14:25;;;;;;;4.65;0.75;;;;;;;21.86;71.16;97694.09;6225607;23;20036;-96
2022/10/16 10:17:19;;;;;;;;;;;;;;;23.79;69.98;97708.78;6224708;23;20018;-94
2022/10/16 10:20:15;;;;;;;5.40;0.77;;;;;;;21.87;71.47;97715.22;6204387;23;19911;-96
2022/10/16 10:22:48;;;;;;;5.50;1.00;;;;;;;22.00;71.42;97707.19;6224100;23;20011;-96
2022/10/16 10:25:14;;;;;;;6.35;0.93;;;;;;;22.94;72.28;97726.00;6221439;23;20012;-96
2022/10/16 10:28:01;;;;;;;3.58;0.65;;;;;;;22.26;71.73;97723.06;6222383;23;20004;-96
2022/10/16 10:31:06;;;;;;;6.10;0.90;;;;;;;23.43;66.68;97738.19;6220877;23;20027;-96
2022/10/16 10:33:42;;;;;;;5.95;1.05;;;;;;;23.71;69.88;97741.34;6221509;23;20004;-96
2022/10/16 10:36:23;;;;;;;6.93;0.85;;;;;;;20.58;74.32;97748.75;6221403;23;20000;-96
2022/10/16 10:39:20;;;;;;;3.70;0.70;;;;;;;25.49;65.45;97751.63;6250258;23;20008;-96
2022/10/16 10:42:34;;;;;;;7.15;1.30;;;;;;;24.34;65.10;97751.44;6218242;23;20497;-96
2022/10/16 10:45:37;;;;;;;8.18;0.80;;;;;;;25.06;59.42;97752.63;6167947;23;20453;-96
2022/10/16 10:48:48;;;;;;;6.45;1.23;;;;;;;23.44;67.14;97752.34;6222713;23;20000;-96
2022/10/16 10:51:26;;;;;;;7.35;0.93;;;;;;;22.35;69.10;97751.59;6071103;23;20021;-96
2022/10/16 10:54:12;;;;;;;4.25;0.80;;;;;;;22.11;69.58;97740.94;6093874;23;20033;-95
2022/10/16 10:57:01;;;;;;;8.23;1.17;;;;;;;22.11;70.44;97730.31;6068755;23;20085;-96
2022/10/16 10:59:48;;;;;;;5.32;0.70;;;;;;;25.59;59.02;97741.00;6061249;23;20018;-95
2022/10/16 11:03:07;;;;;;;6.07;0.82;;;;;;;23.67;62.48;97759.38;6068405;23;20117;-96
2022/10/16 11:06:14;;;;;;;6.50;1.00;;;;;;;23.56;64.56;97758.50;6034401;23;20046;-96
2022/10/16 11:08:46;;;;;;;6.57;0.98;;;;;;;24.29;62.80;97759.81;6006882;23;20004;-96
2022/10/16 11:11:29;;;;;;;7.65;0.90;;;;;;;23.86;60.81;97749.94;6009621;23;20020;-96
2022/10/16 11:14:16;;;;;;;4.80;0.82;;;;;;;24.69;61.46;97761.03;6008751;23;20027;-96
2022/10/16 11:16:53;;;;;;;7.07;0.85;;;;;;;24.10;59.91;97762.28;6037903;23;20442;-96
2022/10/16 11:19:39;;;;;;;3.00;0.50;;;;;;;23.54;59.65;97763.97;6040239;23;20039;-95
2022/10/16 11:22:09;;;;;;;4.32;0.70;;;;;;;24.68;62.01;97780.69;6015849;23;20035;-96
2022/10/16 11:24:46;;;;;;;5.63;0.70;;;;;;;23.75;60.50;97782.72;6036907;23;20754;-96
2022/10/16 11:27:20;;;;;;;5.00;0.75;;;;;;;23.82;60.21;97773.28;6097171;23;20024;-96
2022/10/16 11:30:12;;;;;;;6.32;0.77;;;;;;;25.99;54.55;97792.75;6127848;23;20009;-95
2022/10/16 11:33:24;;;;;;;3.88;0.57;;;;;;;24.06;56.46;97790.13;6128647;23;20024;-96
2022/10/16 11:36:08;;;;;;;5.95;1.17;;;;;;;22.07;63.63;97785.44;6127418;23;20093;-96
2022/10/16 11:39:00;;;;;;;6.63;0.90;;;;;;;21.80;62.95;97786.47;6149218;23;20198;-96
2022/10/16 11:41:38;;;;;;;3.65;0.75;;;;;;;23.14;62.85;97783.84;6220304;23;20438;-96
2022/10/16 11:44:14;;;;;;;6.40;1.30;;;;;;;23.20;61.94;97787.00;6217925;23;20082;-96
2022/10/16 11:46:42;;;;;;;6.28;1.25;;;;;;;23.84;59.68;97792.66;6220097;23;20000;-96
2022/10/16 11:49:24;;;;;;;6.18;0.70;;;;;;;25.42;50.77;97782.50;6218793;23;20068;-95
2022/10/16 11:51:55;;;;;;;5.88;0.88;;;;;;;25.58;51.46;97773.16;6218202;23;20019;-96
2022/10/16 11:54:32;;;;;;;5.80;0.88;;;;;;;24.93;52.61;97775.94;6218203;23;20016;-95